Time;durP1;ratioP1;P1;durP2;ratioP2;P2;SDS_P1;SDS_P2;PMS_P1;PMS_P2;Temp;Humidity;BMP_temperature;BMP_pressure;BME280_temperature;BME280_humidity;BME280_pressure;Samples;Min_cycle;Max_cycle;Signal;HPM_P1;HPM_P2
2023/06/26 00:04:53;;;;;;;13.80;9.88;;;;;;;26.76;nan;97794.13;5089623;27;20551;-66
2023/06/26 00:07:23;;;;;;;11.80;9.85;;;;;;;26.90;nan;97799.44;5078823;28;20840;-67
2023/06/26 00:09:53;;;;;;;12.00;9.77;;;;;;;26.98;nan;97807.59;5080475;28;20117;-68
2023/06/26 00:12:22;;;;;;;11.85;9.77;;;;;;;27.03;nan;97817.50;5080127;28;20093;-68
2023/06/26 00:14:53;;;;;;;11.30;9.18;;;;;;;27.11;nan;97817.50;5076579;28;20437;-67
2023/06/26 00:17:23;;;;;;;11.73;9.32;;;;;;;27.16;nan;97811.09;5062278;28;20430;-68
2023/06/26 00:19:52;;;;;;;10.35;9.00;;;;;;;27.18;nan;97806.91;5079956;28;20459;-68
2023/06/26 00:22:22;;;;;;;10.15;7.97;;;;;;;27.10;nan;97804.22;5072010;28;20913;-68
2023/06/26 00:24:52;;;;;;;11.48;8.88;;;;;;;27.14;nan;97825.00;5080671;28;20052;-68
2023/06/26 00:27:21;;;;;;;13.07;9.63;;;;;;;27.08;nan;97828.22;5079749;28;20055;-69
2023/06/26 00:29:52;;;;;;;13.65;8.77;;;;;;;27.09;nan;97827.06;5080634;28;20048;-67
2023/06/26 00:32:24;;;;;;;11.95;9.68;;;;;;;26.83;nan;97856.94;5062435;28;20041;-68
2023/06/26 00:34:54;;;;;;;13.98;10.65;;;;;;;26.76;nan;97868.28;5081319;28;20040;-68
2023/06/26 00:37:24;;;;;;;13.48;10.68;;;;;;;26.91;nan;97888.00;5051132;28;20045;-69
2023/06/26 00:39:53;;;;;;;13.82;11.68;;;;;;;26.78;nan;97890.50;5062846;28;20131;-67
2023/06/26 00:42:23;;;;;;;18.95;12.77;;;;;;;26.75;nan;97883.00;5063893;28;20044;-68
2023/06/26 00:44:52;;;;;;;13.57;10.60;;;;;;;26.71;nan;97867.66;5058572;28;20048;-69
2023/06/26 00:47:21;;;;;;;10.38;7.72;;;;;;;26.70;nan;97855.16;5079243;28;20105;-69
2023/06/26 00:49:51;;;;;;;9.52;7.13;;;;;;;26.30;nan;97852.53;5055303;28;20087;-68
2023/06/26 00:52:23;;;;;;;8.85;5.88;;;;;;;26.36;nan;97867.56;5078727;28;20052;-70
2023/06/26 00:54:53;;;;;;;9.25;6.05;;;;;;;26.22;nan;97898.66;5046224;28;20044;-69
2023/06/26 00:57:24;;;;;;;10.13;5.30;;;;;;;26.35;nan;97933.06;5063070;28;20106;-69
2023/06/26 00:59:54;;;;;;;7.55;5.50;;;;;;;26.47;nan;97959.59;5051394;28;20105;-69
2023/06/26 01:02:23;;;;;;;8.25;5.90;;;;;;;26.47;nan;97960.41;5044618;28;20056;-69
2023/06/26 01:04:53;;;;;;;8.25;5.05;;;;;;;26.40;nan;97976.38;5052239;28;20116;-69
2023/06/26 01:07:23;;;;;;;6.78;4.35;;;;;;;26.41;nan;97991.53;5048337;28;20045;-69
2023/06/26 01:09:53;;;;;;;7.50;4.47;;;;;;;26.39;nan;98001.91;5048380;28;20056;-70
2023/06/26 01:12:25;;;;;;;7.10;4.78;;;;;;;26.35;nan;98007.16;5042630;28;20044;-69
2023/06/26 01:14:54;;;;;;;7.72;5.07;;;;;;;26.30;nan;97993.72;5045299;28;20902;-69
2023/06/26 01:17:24;;;;;;;6.90;4.50;;;;;;;26.30;nan;97960.34;5048198;28;20036;-69
2023/06/26 01:19:54;;;;;;;4.85;3.50;;;;;;;26.26;nan;97943.06;5048813;28;20044;-69
2023/06/26 01:22:29;;;;;;;5.72;3.53;;;;;;;26.23;nan;97941.00;5062583;28;20045;-69
2023/06/26 01:25:32;;;;;;;4.97;3.55;;;;;;;26.24;nan;97940.69;5049348;28;20044;-70
2023/06/26 01:28:03;;;;;;;5.32;4.00;;;;;;;26.19;nan;97926.41;5049130;28;20115;-70
2023/06/26 01:30:35;;;;;;;5.43;3.92;;;;;;;26.18;nan;97916.66;5049750;28;20041;-70
2023/06/26 01:33:05;;;;;;;5.15;3.75;;;;;;;26.16;nan;97902.59;5044238;28;20033;-70
2023/06/26 01:35:37;;;;;;;5.18;3.70;;;;;;;26.13;nan;97885.03;5048841;28;20720;-71
2023/06/26 01:38:21;;;;;;;5.30;3.78;;;;;;;26.11;nan;97868.22;5048208;28;20131;-72
2023/06/26 01:40:52;;;;;;;4.50;3.90;;;;;;;26.02;nan;97864.72;5028064;28;20164;-73
2023/06/26 01:44:15;;;;;;;4.10;3.70;;;;;;;26.05;nan;97866.00;5066778;28;26164;-73
2023/06/26 01:47:03;;;;;;;4.53;4.00;;;;;;;26.08;nan;97876.22;4984444;28;20052;-73
2023/06/26 01:50:00;;;;;;;7.03;4.10;;;;;;;25.99;nan;97883.50;5065436;28;20044;-71
2023/06/26 01:52:58;;;;;;;4.60;3.60;;;;;;;26.03;nan;97869.00;5062185;28;20076;-72
2023/06/26 01:55:51;;;;;;;4.28;3.88;;;;;;;26.03;nan;97863.56;5078277;28;20040;-72
2023/06/26 01:58:25;;;;;;;6.10;4.35;;;;;;;25.60;nan;97847.09;5071657;28;20060;-74
2023/06/26 02:00:55;;;;;;;5.32;4.00;;;;;;;25.84;nan;97833.19;5061749;28;20119;-72
2023/06/26 02:03:24;;;;;;;5.95;3.85;;;;;;;25.90;nan;97838.16;5051749;28;20056;-73
2023/06/26 02:05:54;;;;;;;3.97;3.30;;;;;;;25.90;nan;97842.78;5039361;28;20041;-72
2023/06/26 02:08:23;;;;;;;5.63;4.00;;;;;;;25.95;nan;97861.63;5056286;28;20044;-73
2023/06/26 02:10:56;;;;;;;;;;;;;;;25.82;nan;97876.91;5041458;28;20136;-72
2023/06/26 02:13:25;;;;;;;3.65;3.00;;;;;;;25.74;nan;97912.94;5061244;28;19920;-73
2023/06/26 02:15:55;;;;;;;4.82;3.13;;;;;;;25.69;nan;97961.88;5047335;28;20095;-74
2023/06/26 02:18:25;;;;;;;7.22;3.60;;;;;;;25.74;nan;98007.88;5067328;28;20058;-73
2023/06/26 02:20:54;;;;;;;3.95;2.92;;;;;;;25.87;nan;98058.56;5064239;28;20387;-72
2023/06/26 02:23:23;;;;;;;4.60;3.38;;;;;;;25.95;nan;98067.88;5067610;28;20048;-74
2023/06/26 02:25:53;;;;;;;4.68;3.80;;;;;;;25.91;nan;98056.84;5081587;28;20106;-72
2023/06/26 02:28:22;;;;;;;6.93;4.22;;;;;;;25.97;nan;98043.97;5067998;28;20577;-72
2023/06/26 02:30:52;;;;;;;8.30;4.95;;;;;;;25.97;nan;98064.84;5068006;28;20593;-71
2023/06/26 02:33:21;;;;;;;8.88;4.93;;;;;;;25.99;nan;98084.34;5067584;28;20067;-71
2023/06/26 02:35:50;;;;;;;9.18;5.53;;;;;;;25.95;nan;98114.00;5035382;28;20044;-72
2023/06/26 02:38:20;;;;;;;8.60;5.18;;;;;;;26.02;nan;98151.59;5083767;28;20048;-73
2023/06/26 02:40:49;;;;;;;6.53;4.68;;;;;;;25.98;nan;98173.09;5068303;28;20040;-74
2023/06/26 02:43:18;;;;;;;5.78;4.10;;;;;;;25.96;nan;98179.94;5067582;28;20443;-72
2023/06/26 02:45:49;;;;;;;5.00;3.10;;;;;;;25.85;nan;98169.28;5067365;28;20323;-72
2023/06/26 02:48:18;;;;;;;3.88;2.50;;;;;;;25.80;nan;98171.34;5066376;28;20459;-72
2023/06/26 02:50:48;;;;;;;4.45;2.13;;;;;;;25.70;nan;98166.94;5081285;28;20036;-72
2023/06/26 02:53:19;;;;;;;4.97;2.42;;;;;;;25.19;nan;98125.63;5065875;28;20044;-71
2023/06/26 02:55:49;;;;;;;4.78;2.28;;;;;;;25.26;nan;98105.19;5085230;28;20123;-71
2023/06/26 02:58:19;;;;;;;3.90;1.95;;;;;;;25.38;nan;98097.31;5066111;28;20627;-70
2023/06/26 03:00:49;;;;;;;2.78;1.60;;;;;;;25.44;nan;98100.75;5067582;28;20480;-69
2023/06/26 03:03:19;;;;;;;3.10;1.60;;;;;;;25.40;nan;98076.13;5063279;28;20059;-69
2023/06/26 03:05:49;;;;;;;3.08;1.48;;;;;;;25.37;nan;98073.22;5063125;28;20044;-69
2023/06/26 03:08:18;;;;;;;1.98;1.20;;;;;;;25.40;nan;98064.50;5060884;28;20051;-67
2023/06/26 03:10:48;;;;;;;2.40;0.93;;;;;;;25.38;nan;98061.28;5064132;28;20051;-69
2023/06/26 03:13:18;;;;;;;2.58;1.40;;;;;;;25.35;nan;98048.34;5061043;28;20048;-67
2023/06/26 03:15:48;;;;;;;1.73;1.27;;;;;;;25.15;nan;98029.78;5065899;28;20043;-68
2023/06/26 03:18:17;;;;;;;4.07;2.00;;;;;;;25.08;nan;98040.22;5065788;28;20044;-69
2023/06/26 03:20:48;;;;;;;3.78;2.00;;;;;;;24.97;nan;98042.34;5066238;28;20055;-68
2023/06/26 03:23:17;;;;;;;3.08;1.88;;;;;;;25.01;nan;98041.44;5066802;28;20051;-67
2023/06/26 03:25:47;;;;;;;3.47;1.75;;;;;;;24.99;nan;98042.84;5067020;28;20044;-69
2023/06/26 03:28:25;;;;;;;3.63;1.92;;;;;;;25.13;nan;98059.09;5061601;28;20052;-69
2023/06/26 03:30:54;;;;;;;3.92;2.05;;;;;;;25.23;nan;98045.31;5067014;28;20044;-69
2023/06/26 03:33:25;;;;;;;4.85;2.40;;;;;;;25.21;nan;98056.47;5066767;28;20044;-69
2023/06/26 03:35:56;;;;;;;4.13;2.65;;;;;;;25.28;nan;98069.63;5066293;28;20097;-68
2023/06/26 03:38:26;;;;;;;4.03;2.88;;;;;;;25.34;nan;98068.41;5059496;28;20056;-68
2023/06/26 14:46:10;;;;;;;9.60;5.28;;;;;;;28.82;81.65;97659.84;5084368;27;20446;-65
2023/06/26 14:49:03;;;;;;;10.68;5.45;;;;;;;28.83;80.54;97655.19;5080818;28;20130;-66
2023/06/26 14:55:25;;;;;;;7.63;4.68;;;;;;;28.88;79.44;97660.44;5101160;27;20519;-65
2023/06/26 15:00:21;;;;;;;6.60;5.43;;;;;;;28.94;80.41;97670.78;5092418;27;20497;-66
2023/06/26 16:35:16;;;;;;;34.90;28.08;;;;;;;28.94;92.42;97793.44;5085752;28;20504;-66
2023/06/26 16:39:19;;;;;;;34.45;28.25;;;;;;;28.98;92.41;97799.06;5106156;27;20511;-65
2023/06/26 16:44:27;;;;;;;39.10;32.35;;;;;;;28.97;92.73;97816.53;5065630;28;20447;-66
2023/06/26 16:47:17;;;;;;;42.15;32.22;;;;;;;28.94;93.17;97800.88;5106101;27;20448;-65
2023/06/26 16:50:53;;;;;;;44.38;34.20;;;;;;;29.00;92.97;97810.41;5065861;28;20439;-66
2023/06/26 16:57:43;;;;;;;45.10;36.38;;;;;;;28.92;92.73;97803.13;5085706;27;20509;-66
2023/06/26 17:00:35;;;;;;;50.70;37.53;;;;;;;28.97;92.14;97825.53;5085431;28;20144;-70
